createdAt,value
2022-09-28T00:01:28.045Z,10.70
2022-09-28T00:04:16.184Z,10.70
2022-09-28T00:07:04.334Z,10.70
2022-09-28T00:09:52.530Z,10.70
2022-09-28T00:12:40.706Z,10.70
2022-09-28T00:15:29.218Z,10.70
2022-09-28T00:18:18.728Z,10.70
2022-09-28T00:21:08.714Z,10.70
2022-09-28T00:24:15.163Z,10.70
2022-09-28T00:27:04.181Z,10.70
2022-09-28T00:29:52.307Z,10.70
2022-09-28T00:32:40.841Z,10.70
2022-09-28T00:35:30.317Z,10.70
2022-09-28T00:38:20.217Z,10.70
2022-09-28T00:41:08.421Z,10.70
2022-09-28T00:44:38.302Z,10.70
2022-09-28T00:47:42.844Z,10.70
2022-09-28T00:50:36.387Z,10.70
2022-09-28T00:53:27.735Z,10.70
2022-09-28T00:56:19.711Z,10.70
2022-09-28T00:59:09.837Z,10.70
2022-09-28T01:01:58.066Z,10.70
2022-09-28T01:04:46.316Z,10.60
2022-09-28T01:07:36.579Z,10.60
2022-09-28T01:10:24.848Z,10.60
2022-09-28T01:13:13.862Z,10.60
2022-09-28T01:16:20.611Z,10.60
2022-09-28T01:19:25.426Z,10.50
2022-09-28T01:22:28.197Z,10.50
2022-09-28T01:25:27.933Z,10.50
2022-09-28T01:28:20.198Z,10.50
2022-09-28T01:31:12.561Z,10.40
2022-09-28T01:34:06.318Z,10.40
2022-09-28T01:36:57.081Z,10.40
2022-09-28T01:39:49.710Z,10.40
2022-09-28T01:42:40.659Z,10.40
2022-09-28T01:45:34.231Z,10.40
2022-09-28T01:48:27.449Z,10.40
2022-09-28T01:51:20.509Z,10.30
2022-09-28T01:54:13.047Z,10.20
2022-09-28T01:57:08.148Z,10.20
2022-09-28T02:00:02.241Z,10.10
2022-09-28T02:02:56.650Z,10.10
2022-09-28T02:05:49.929Z,10.00
2022-09-28T02:08:44.380Z,10.00
2022-09-28T02:11:37.342Z,10.00
2022-09-28T02:14:27.150Z,10.00
2022-09-28T02:17:16.210Z,9.90
2022-09-28T02:20:07.465Z,9.90
2022-09-28T02:22:57.639Z,9.80
2022-09-28T02:25:52.594Z,9.70
2022-09-28T02:28:40.800Z,9.60
2022-09-28T02:31:29.302Z,9.60
2022-09-28T02:34:17.637Z,9.70
2022-09-28T02:37:07.201Z,9.70
2022-09-28T02:39:55.445Z,9.70
2022-09-28T02:42:54.252Z,9.80
2022-09-28T02:46:02.112Z,9.80
2022-09-28T02:49:17.384Z,9.80
2022-09-28T02:52:25.076Z,9.70
2022-09-28T02:55:24.955Z,9.70
2022-09-28T02:58:22.573Z,9.60
2022-09-28T03:01:21.602Z,9.60
2022-09-28T03:04:19.766Z,9.60
2022-09-28T03:07:12.048Z,9.40
2022-09-28T03:10:08.508Z,9.30
2022-09-28T03:12:58.025Z,9.30
2022-09-28T03:15:48.871Z,9.30
2022-09-28T03:18:37.313Z,9.30
2022-09-28T03:21:25.570Z,9.20
2022-09-28T03:24:13.704Z,9.20
2022-09-28T03:27:03.195Z,9.20
2022-09-28T03:29:51.314Z,9.10
2022-09-28T03:32:39.919Z,9.10
2022-09-28T03:35:28.310Z,9.00
2022-09-28T03:38:16.800Z,8.90
2022-09-28T03:41:05.239Z,8.90
2022-09-28T03:43:54.913Z,8.90
2022-09-28T03:46:43.044Z,8.80
2022-09-28T03:49:31.194Z,8.80
2022-09-28T03:52:19.361Z,8.80
2022-09-28T03:55:08.006Z,8.80
2022-09-28T03:57:56.661Z,8.80
2022-09-28T04:00:46.195Z,8.70
2022-09-28T04:03:34.485Z,8.70
2022-09-28T04:06:23.053Z,8.70
2022-09-28T04:09:11.244Z,8.70
2022-09-28T04:12:04.187Z,8.70
2022-09-28T04:14:52.786Z,8.80
2022-09-28T04:17:43.066Z,8.70
2022-09-28T04:20:31.194Z,8.70
2022-09-28T04:23:20.458Z,8.70
2022-09-28T04:26:12.681Z,8.70
2022-09-28T04:29:18.199Z,8.70
2022-09-28T04:32:06.840Z,8.80
2022-09-28T04:34:56.376Z,8.80
2022-09-28T04:37:44.535Z,8.80
2022-09-28T04:40:32.734Z,8.80
2022-09-28T04:43:20.936Z,8.90
2022-09-28T04:46:09.189Z,8.90
2022-09-28T04:48:57.401Z,8.90
2022-09-28T04:51:47.036Z,9.00
2022-09-28T04:54:35.226Z,9.00
2022-09-28T04:57:23.554Z,8.90
2022-09-28T05:00:13.701Z,8.90
2022-09-28T05:03:01.936Z,8.90
2022-09-28T05:05:50.348Z,9.00
2022-09-28T05:08:39.890Z,9.00
2022-09-28T05:11:28.380Z,9.00
2022-09-28T05:14:16.753Z,9.00
2022-09-28T05:17:05.026Z,9.00
2022-09-28T05:19:53.192Z,9.00
2022-09-28T05:22:41.316Z,9.00
2022-09-28T05:25:30.812Z,9.10
2022-09-28T05:28:24.850Z,9.10
2022-09-28T05:31:12.989Z,9.10
2022-09-28T05:34:01.524Z,9.10
2022-09-28T05:36:49.709Z,9.20
2022-09-28T05:39:37.846Z,9.20
2022-09-28T05:42:27.299Z,9.20
2022-09-28T05:45:15.937Z,9.20
2022-09-28T05:48:04.123Z,9.20
2022-09-28T05:50:52.747Z,9.20
2022-09-28T05:53:41.031Z,9.20
2022-09-28T05:56:31.637Z,9.20
2022-09-28T05:59:21.122Z,9.30
2022-09-28T06:02:11.176Z,9.30
2022-09-28T06:04:59.688Z,9.20
2022-09-28T06:07:47.858Z,9.20
2022-09-28T06:10:36.222Z,9.30
2022-09-28T06:13:24.398Z,9.30
2022-09-28T06:16:17.508Z,9.30
2022-09-28T06:19:05.714Z,9.40
2022-09-28T06:21:54.050Z,9.40
2022-09-28T06:24:42.208Z,9.50
2022-09-28T06:27:30.388Z,9.50
2022-09-28T06:30:18.747Z,9.50
2022-09-28T06:33:11.400Z,9.50
2022-09-28T06:36:00.949Z,9.60
2022-09-28T06:38:49.188Z,9.50
2022-09-28T06:41:37.374Z,9.50
2022-09-28T06:44:25.642Z,9.50
2022-09-28T06:47:14.586Z,9.60
2022-09-28T06:50:04.344Z,9.60
2022-09-28T06:52:53.998Z,9.70
2022-09-28T06:55:43.539Z,9.70
2022-09-28T06:58:32.292Z,9.70
2022-09-28T07:01:20.979Z,9.70
2022-09-28T07:04:09.160Z,9.80
2022-09-28T07:06:59.116Z,9.80
2022-09-28T07:09:50.429Z,9.90
2022-09-28T07:12:40.742Z,9.90
2022-09-28T07:15:29.462Z,9.90
2022-09-28T07:18:17.906Z,9.90
2022-09-28T07:21:08.593Z,9.90
2022-09-28T07:23:59.991Z,9.90
2022-09-28T07:26:48.120Z,9.90
2022-09-28T07:29:36.368Z,9.80
2022-09-28T07:32:24.719Z,9.80
2022-09-28T07:35:12.925Z,9.80
2022-09-28T07:38:02.542Z,9.80
2022-09-28T07:41:09.460Z,9.80
2022-09-28T07:43:58.995Z,9.90
2022-09-28T07:46:47.249Z,9.80
2022-09-28T07:49:35.370Z,9.80
2022-09-28T07:52:26.179Z,9.80
2022-09-28T07:55:14.693Z,9.90
2022-09-28T07:58:04.207Z,9.90
2022-09-28T08:00:52.591Z,9.90
2022-09-28T08:03:40.819Z,9.90
2022-09-28T08:06:31.364Z,9.90
2022-09-28T08:09:19.654Z,10.00
2022-09-28T08:12:07.846Z,9.90
2022-09-28T08:14:57.439Z,9.90
2022-09-28T08:17:48.198Z,10.00
2022-09-28T08:20:54.236Z,10.00
2022-09-28T08:23:42.447Z,10.00
2022-09-28T08:26:30.652Z,10.00
2022-09-28T08:29:18.801Z,10.00
2022-09-28T08:32:09.130Z,10.10
2022-09-28T08:34:57.280Z,10.20
2022-09-28T08:37:55.486Z,10.20
2022-09-28T08:40:53.206Z,10.30
2022-09-28T08:43:58.318Z,10.40
2022-09-28T08:46:50.215Z,10.50
2022-09-28T08:49:44.966Z,10.50
2022-09-28T08:52:38.072Z,10.50
2022-09-28T08:55:31.422Z,10.50
2022-09-28T08:58:24.357Z,10.50
2022-09-28T09:01:16.475Z,10.50
2022-09-28T09:04:06.620Z,10.50
2022-09-28T09:07:11.925Z,10.50
2022-09-28T09:10:11.755Z,10.50
2022-09-28T09:13:12.466Z,10.50
2022-09-28T09:16:07.503Z,10.50
2022-09-28T09:19:02.005Z,10.50
2022-09-28T09:21:59.833Z,10.50
2022-09-28T09:24:55.872Z,10.50
2022-09-28T09:27:56.667Z,10.60
2022-09-28T09:30:53.157Z,10.60
2022-09-28T09:33:58.476Z,10.70
2022-09-28T09:37:05.197Z,10.70
2022-09-28T09:40:11.992Z,10.80
2022-09-28T09:43:29.353Z,10.70
2022-09-28T09:46:23.705Z,10.80
2022-09-28T09:49:16.090Z,10.80
2022-09-28T09:52:11.132Z,10.90
2022-09-28T09:55:03.998Z,10.90
2022-09-28T09:57:56.594Z,10.90
2022-09-28T10:00:46.617Z,10.90
2022-09-28T10:03:37.653Z,11.00
2022-09-28T10:06:27.645Z,11.00
2022-09-28T10:09:24.451Z,11.00
2022-09-28T10:12:19.830Z,10.90
2022-09-28T10:15:09.273Z,10.90
2022-09-28T10:18:00.854Z,10.90
2022-09-28T10:20:49.891Z,11.00
2022-09-28T10:23:38.855Z,11.10
2022-09-28T10:26:31.617Z,11.10
2022-09-28T10:29:24.977Z,11.00
2022-09-28T10:32:22.105Z,11.00
2022-09-28T10:35:23.715Z,11.00
2022-09-28T10:38:17.951Z,11.10
2022-09-28T10:41:12.236Z,11.20
2022-09-28T10:44:11.111Z,11.20
2022-09-28T10:47:03.007Z,11.20
2022-09-28T10:49:52.615Z,11.20
2022-09-28T10:52:44.923Z,11.20
2022-09-28T10:55:36.883Z,11.20
2022-09-28T10:58:28.788Z,11.30
2022-09-28T11:01:20.591Z,11.30
2022-09-28T11:04:21.446Z,11.30
2022-09-28T11:07:18.801Z,11.30
2022-09-28T11:10:17.688Z,11.40
2022-09-28T11:13:10.550Z,11.50
2022-09-28T11:15:59.425Z,11.50
2022-09-28T11:18:47.813Z,11.50
2022-09-28T11:21:46.000Z,11.60
2022-09-28T11:24:34.372Z,11.70
2022-09-28T11:27:26.035Z,11.70
2022-09-28T11:30:24.699Z,11.70
2022-09-28T11:33:19.220Z,11.80
2022-09-28T11:36:23.879Z,11.80
2022-09-28T11:39:22.398Z,11.80
2022-09-28T11:42:21.393Z,11.80
2022-09-28T11:45:27.500Z,11.80
2022-09-28T11:48:19.131Z,11.70
2022-09-28T11:51:12.346Z,11.60
2022-09-28T11:54:10.497Z,11.50
2022-09-28T11:57:02.317Z,11.40
2022-09-28T11:59:59.407Z,11.40
2022-09-28T12:02:53.065Z,11.30
2022-09-28T12:05:45.865Z,11.20
2022-09-28T12:08:37.564Z,11.10
2022-09-28T12:11:32.516Z,11.00
2022-09-28T12:14:27.309Z,10.80
2022-09-28T12:17:22.758Z,10.70
2022-09-28T12:20:19.892Z,10.70
2022-09-28T12:23:14.085Z,10.60
2022-09-28T12:26:05.632Z,10.60
2022-09-28T12:28:58.533Z,10.60
2022-09-28T12:31:57.775Z,10.80
2022-09-28T12:34:45.961Z,10.80
2022-09-28T12:37:50.579Z,10.90
2022-09-28T12:40:53.007Z,10.90
2022-09-28T12:44:07.359Z,10.90
2022-09-28T12:47:14.719Z,10.90
2022-09-28T12:53:56.258Z,10.90
2022-09-28T12:56:53.650Z,10.90
2022-09-28T12:59:48.774Z,10.90
2022-09-28T13:03:07.183Z,11.00
2022-09-28T13:06:25.731Z,11.00
2022-09-28T13:09:21.629Z,11.10
2022-09-28T13:12:24.395Z,11.10
2022-09-28T13:15:27.802Z,11.20
2022-09-28T13:18:27.462Z,11.20
2022-09-28T13:21:28.310Z,11.30
2022-09-28T13:24:33.522Z,11.30
2022-09-28T13:27:29.948Z,11.30
2022-09-28T13:30:19.578Z,11.40
2022-09-28T13:33:11.771Z,11.40
2022-09-28T13:36:03.091Z,11.40
2022-09-28T13:38:52.148Z,11.50
2022-09-28T13:41:41.055Z,11.50
2022-09-28T13:44:52.318Z,11.60
2022-09-28T13:47:47.159Z,11.60
2022-09-28T13:50:46.732Z,11.70
2022-09-28T13:53:48.181Z,11.70
2022-09-28T13:56:44.188Z,11.70
2022-09-28T13:59:35.524Z,11.70
2022-09-28T14:02:33.740Z,11.70
2022-09-28T14:05:47.883Z,11.60
2022-09-28T14:08:47.328Z,11.60
2022-09-28T14:11:45.114Z,11.60
2022-09-28T14:14:48.671Z,11.50
2022-09-28T14:17:53.959Z,11.40
2022-09-28T14:20:51.193Z,11.40
2022-09-28T14:24:06.609Z,11.30
2022-09-28T14:27:13.325Z,11.30
2022-09-28T14:30:21.672Z,11.30
2022-09-28T14:33:27.502Z,11.30
2022-09-28T14:36:47.371Z,11.40
2022-09-28T14:39:56.741Z,11.40
2022-09-28T14:43:24.058Z,11.40
2022-09-28T14:46:31.954Z,11.40
2022-09-28T14:50:00.443Z,11.50
2022-09-28T14:52:52.363Z,11.60
2022-09-28T14:55:50.400Z,11.70
2022-09-28T14:58:39.045Z,11.70
2022-09-28T15:01:27.582Z,11.80
2022-09-28T15:04:16.322Z,11.80
2022-09-28T15:07:05.303Z,11.80
2022-09-28T15:09:55.133Z,11.80
2022-09-28T15:12:44.931Z,11.80
2022-09-28T15:15:36.417Z,11.80
2022-09-28T15:19:01.129Z,11.80
2022-09-28T15:21:51.147Z,11.80
2022-09-28T15:24:40.253Z,11.80
2022-09-28T15:27:35.949Z,11.90
2022-09-28T15:30:29.083Z,11.80
2022-09-28T15:33:45.768Z,11.90
2022-09-28T15:36:38.253Z,11.80
2022-09-28T15:39:34.036Z,11.80
2022-09-28T15:42:23.637Z,11.80
2022-09-28T15:45:25.501Z,11.80
2022-09-28T15:48:27.270Z,11.90
2022-09-28T15:51:15.557Z,11.90
2022-09-28T15:54:11.040Z,11.90
2022-09-28T15:57:02.675Z,12.00
2022-09-28T15:59:56.929Z,11.90
2022-09-28T16:03:00.409Z,12.00
2022-09-28T16:05:52.078Z,12.00
2022-09-28T16:08:42.776Z,12.00
2022-09-28T16:11:37.948Z,12.00
2022-09-28T16:14:28.082Z,12.00
2022-09-28T16:17:20.766Z,12.10
2022-09-28T16:20:23.211Z,12.10
2022-09-28T16:23:21.230Z,12.00
2022-09-28T16:26:18.399Z,11.90
2022-09-28T16:29:25.803Z,11.70
2022-09-28T16:32:38.226Z,11.60
2022-09-28T16:35:29.769Z,11.50
2022-09-28T16:38:20.489Z,11.50
2022-09-28T16:41:10.043Z,11.50
2022-09-28T16:44:00.871Z,11.50
2022-09-28T16:46:49.080Z,11.50
2022-09-28T16:49:40.835Z,11.50
2022-09-28T16:52:42.998Z,11.40
2022-09-28T16:55:41.129Z,11.40
2022-09-28T16:58:31.341Z,11.40
2022-09-28T17:01:19.565Z,11.30
2022-09-28T17:04:07.808Z,11.30
2022-09-28T17:06:58.371Z,11.30
2022-09-28T17:09:46.661Z,11.30
2022-09-28T17:12:36.153Z,11.30
2022-09-28T17:15:25.924Z,11.30
2022-09-28T17:18:15.277Z,11.30
2022-09-28T17:21:04.777Z,11.20
2022-09-28T17:23:52.969Z,11.20
2022-09-28T17:26:43.761Z,11.10
2022-09-28T17:29:33.614Z,11.10
2022-09-28T17:32:21.744Z,11.10
2022-09-28T17:35:24.033Z,11.10
2022-09-28T17:38:13.671Z,11.10
2022-09-28T17:41:01.904Z,11.00
2022-09-28T17:43:50.642Z,10.90
2022-09-28T17:46:45.898Z,10.90
2022-09-28T17:49:34.202Z,10.90
2022-09-28T17:52:22.371Z,10.90
2022-09-28T17:55:10.977Z,10.80
2022-09-28T17:58:01.033Z,10.90
2022-09-28T18:00:51.189Z,10.90
2022-09-28T18:03:41.098Z,10.80
2022-09-28T18:06:29.394Z,10.80
2022-09-28T18:09:24.811Z,10.90
2022-09-28T18:12:13.806Z,10.90
2022-09-28T18:15:02.137Z,10.90
2022-09-28T18:17:50.453Z,10.90
2022-09-28T18:20:41.380Z,10.90
2022-09-28T18:23:29.698Z,10.90
2022-09-28T18:26:19.570Z,10.90
2022-09-28T18:29:07.913Z,10.80
2022-09-28T18:31:56.157Z,10.90
2022-09-28T18:34:44.369Z,10.90
2022-09-28T18:37:37.400Z,10.90
2022-09-28T18:40:25.687Z,10.80
2022-09-28T18:43:13.972Z,10.80
2022-09-28T18:46:07.172Z,10.80
2022-09-28T18:48:56.030Z,10.80
2022-09-28T18:51:44.289Z,10.80
2022-09-28T18:54:33.895Z,10.70
2022-09-28T18:57:22.602Z,10.70
2022-09-28T19:00:14.717Z,10.70
2022-09-28T19:03:03.094Z,10.60
2022-09-28T19:05:51.457Z,10.50
2022-09-28T19:08:39.843Z,10.40
2022-09-28T19:11:29.670Z,10.30
2022-09-28T19:14:18.269Z,10.20
2022-09-28T19:17:06.792Z,10.20
2022-09-28T19:19:55.064Z,10.20
2022-09-28T19:22:43.307Z,10.10
2022-09-28T19:25:31.550Z,10.00
2022-09-28T19:28:21.209Z,9.90
2022-09-28T19:31:10.104Z,9.80
2022-09-28T19:33:58.562Z,9.60
2022-09-28T19:36:46.820Z,9.50
2022-09-28T19:39:35.398Z,9.40
2022-09-28T19:42:23.666Z,9.40
2022-09-28T19:45:13.281Z,9.40
2022-09-28T19:48:03.102Z,9.50
2022-09-28T19:50:58.539Z,9.60
2022-09-28T19:53:47.900Z,9.60
2022-09-28T19:56:36.287Z,9.70
2022-09-28T19:59:24.576Z,9.70
2022-09-28T20:02:14.338Z,9.70
2022-09-28T20:05:02.644Z,9.80
2022-09-28T20:07:50.920Z,9.60
2022-09-28T20:10:39.670Z,9.60
2022-09-28T20:13:32.457Z,9.70
2022-09-28T20:16:24.454Z,9.70
2022-09-28T20:19:14.383Z,9.70
2022-09-28T20:22:02.952Z,9.70
2022-09-28T20:24:51.493Z,9.80
2022-09-28T20:27:39.797Z,9.80
2022-09-28T20:30:28.064Z,9.90
2022-09-28T20:33:27.497Z,9.90
2022-09-28T20:36:19.942Z,9.90
2022-09-28T20:39:08.336Z,9.90
2022-09-28T20:41:57.632Z,9.90
2022-09-28T20:44:46.157Z,9.90
2022-09-28T20:47:34.598Z,9.90
2022-09-28T20:50:23.673Z,9.80
2022-09-28T20:53:13.385Z,9.80
2022-09-28T20:56:02.607Z,9.80
2022-09-28T20:58:51.722Z,9.80
2022-09-28T21:01:41.318Z,9.70
2022-09-28T21:04:29.722Z,9.70
2022-09-28T21:07:18.115Z,9.60
2022-09-28T21:10:09.552Z,9.60
2022-09-28T21:12:57.818Z,9.50
2022-09-28T21:15:46.195Z,9.50
2022-09-28T21:18:34.503Z,9.50
2022-09-28T21:21:24.145Z,9.50
2022-09-28T21:24:12.560Z,9.40
2022-09-28T21:27:02.332Z,9.40
2022-09-28T21:29:50.649Z,9.40
2022-09-28T21:32:38.953Z,9.40
2022-09-28T21:35:27.251Z,9.40
2022-09-28T21:38:15.600Z,9.40
2022-09-28T21:41:04.267Z,9.30
2022-09-28T21:43:53.979Z,9.40
2022-09-28T21:46:42.420Z,9.40
2022-09-28T21:49:30.746Z,9.40
2022-09-28T21:52:18.974Z,9.30
2022-09-28T21:55:08.270Z,9.30
2022-09-28T21:57:56.495Z,9.30
2022-09-28T22:00:46.329Z,9.30
2022-09-28T22:03:36.056Z,9.30
2022-09-28T22:06:27.832Z,9.30
2022-09-28T22:09:16.113Z,9.30
2022-09-28T22:12:04.446Z,9.30
2022-09-28T22:14:52.696Z,9.30
2022-09-28T22:17:42.325Z,9.30
2022-09-28T22:20:30.582Z,9.30
2022-09-28T22:23:18.855Z,9.30
2022-09-28T22:26:09.737Z,9.30
2022-09-28T22:29:00.161Z,9.30
2022-09-28T22:31:48.760Z,9.40
2022-09-28T22:34:38.409Z,9.30
2022-09-28T22:37:28.035Z,9.20
2022-09-28T22:40:16.613Z,9.10
2022-09-28T22:43:04.950Z,9.10
2022-09-28T22:46:02.572Z,9.10
2022-09-28T22:48:52.601Z,9.00
2022-09-28T22:51:42.240Z,9.00
2022-09-28T22:54:30.569Z,9.10
2022-09-28T22:57:19.303Z,9.10
2022-09-28T23:00:09.139Z,9.10
2022-09-28T23:02:57.585Z,9.20
2022-09-28T23:05:53.983Z,9.20
2022-09-28T23:08:44.458Z,9.20
2022-09-28T23:11:32.848Z,9.30
2022-09-28T23:14:22.617Z,9.30
2022-09-28T23:17:10.899Z,9.40
2022-09-28T23:19:59.148Z,9.30
2022-09-28T23:22:48.205Z,9.30
2022-09-28T23:25:37.844Z,9.40
2022-09-28T23:28:28.268Z,9.40
2022-09-28T23:31:18.658Z,9.40
2022-09-28T23:34:07.839Z,9.40
2022-09-28T23:36:56.798Z,9.40
2022-09-28T23:39:45.063Z,9.50
2022-09-28T23:42:35.601Z,9.50
2022-09-28T23:45:23.839Z,9.50
2022-09-28T23:48:15.020Z,9.50
2022-09-28T23:51:03.498Z,9.60
2022-09-28T23:53:51.769Z,9.60
2022-09-28T23:56:40.034Z,9.50
2022-09-28T23:59:29.650Z,9.50
